sensor_id;sensor_type;location;lat;lon;timestamp;P1;durP1;ratioP1;P2;durP2;ratioP2
43817;SDS011;29868;47.360;18.984;2022-08-26T00:00:20;11.90;;;8.63;;
43817;SDS011;29868;47.360;18.984;2022-08-26T00:02:46;11.57;;;8.45;;
43817;SDS011;29868;47.360;18.984;2022-08-26T00:05:11;13.20;;;9.23;;
43817;SDS011;29868;47.360;18.984;2022-08-26T00:07:37;13.50;;;8.63;;
43817;SDS011;29868;47.360;18.984;2022-08-26T00:10:02;12.98;;;8.82;;
43817;SDS011;29868;47.360;18.984;2022-08-26T00:12:29;11.25;;;8.30;;
43817;SDS011;29868;47.360;18.984;2022-08-26T00:14:55;11.00;;;8.65;;
43817;SDS011;29868;47.360;18.984;2022-08-26T00:17:20;13.18;;;8.70;;
43817;SDS011;29868;47.360;18.984;2022-08-26T00:19:45;13.07;;;9.35;;
43817;SDS011;29868;47.360;18.984;2022-08-26T00:22:11;12.70;;;8.98;;
43817;SDS011;29868;47.360;18.984;2022-08-26T00:24:37;13.32;;;8.82;;
43817;SDS011;29868;47.360;18.984;2022-08-26T00:27:03;11.27;;;8.32;;
43817;SDS011;29868;47.360;18.984;2022-08-26T00:29:28;12.40;;;8.32;;
43817;SDS011;29868;47.360;18.984;2022-08-26T00:31:55;13.98;;;9.35;;
43817;SDS011;29868;47.360;18.984;2022-08-26T00:34:21;13.48;;;9.20;;
43817;SDS011;29868;47.360;18.984;2022-08-26T00:36:46;13.98;;;9.85;;
43817;SDS011;29868;47.360;18.984;2022-08-26T00:39:12;11.20;;;8.52;;
43817;SDS011;29868;47.360;18.984;2022-08-26T00:41:38;11.77;;;8.95;;
43817;SDS011;29868;47.360;18.984;2022-08-26T00:44:04;14.55;;;9.57;;
43817;SDS011;29868;47.360;18.984;2022-08-26T00:46:32;15.35;;;9.68;;
43817;SDS011;29868;47.360;18.984;2022-08-26T00:49:05;14.63;;;10.18;;
43817;SDS011;29868;47.360;18.984;2022-08-26T00:51:33;14.25;;;9.23;;
43817;SDS011;29868;47.360;18.984;2022-08-26T00:54:04;14.05;;;9.50;;
43817;SDS011;29868;47.360;18.984;2022-08-26T00:59:04;14.75;;;9.70;;
43817;SDS011;29868;47.360;18.984;2022-08-26T01:01:31;11.90;;;9.07;;
43817;SDS011;29868;47.360;18.984;2022-08-26T01:03:57;12.38;;;9.38;;
43817;SDS011;29868;47.360;18.984;2022-08-26T01:06:23;13.13;;;9.20;;
43817;SDS011;29868;47.360;18.984;2022-08-26T01:08:49;15.43;;;9.32;;
43817;SDS011;29868;47.360;18.984;2022-08-26T01:11:17;15.38;;;10.40;;
43817;SDS011;29868;47.360;18.984;2022-08-26T01:13:43;13.35;;;9.07;;
43817;SDS011;29868;47.360;18.984;2022-08-26T01:16:10;13.52;;;9.38;;
43817;SDS011;29868;47.360;18.984;2022-08-26T01:18:41;11.23;;;9.15;;
43817;SDS011;29868;47.360;18.984;2022-08-26T01:21:28;13.48;;;9.98;;
43817;SDS011;29868;47.360;18.984;2022-08-26T01:23:53;15.38;;;9.60;;
43817;SDS011;29868;47.360;18.984;2022-08-26T01:26:25;14.13;;;9.38;;
43817;SDS011;29868;47.360;18.984;2022-08-26T01:28:55;13.55;;;9.02;;
43817;SDS011;29868;47.360;18.984;2022-08-26T01:31:23;16.60;;;10.32;;
43817;SDS011;29868;47.360;18.984;2022-08-26T01:36:30;13.98;;;9.45;;
43817;SDS011;29868;47.360;18.984;2022-08-26T01:38:56;14.48;;;9.52;;
43817;SDS011;29868;47.360;18.984;2022-08-26T01:41:21;14.73;;;9.45;;
43817;SDS011;29868;47.360;18.984;2022-08-26T01:43:48;13.07;;;9.82;;
43817;SDS011;29868;47.360;18.984;2022-08-26T01:46:17;15.38;;;9.60;;
43817;SDS011;29868;47.360;18.984;2022-08-26T01:48:45;14.57;;;9.82;;
43817;SDS011;29868;47.360;18.984;2022-08-26T01:51:11;15.32;;;9.05;;
43817;SDS011;29868;47.360;18.984;2022-08-26T01:53:39;13.05;;;10.10;;
43817;SDS011;29868;47.360;18.984;2022-08-26T01:56:05;16.13;;;10.15;;
43817;SDS011;29868;47.360;18.984;2022-08-26T01:58:54;12.60;;;8.68;;
43817;SDS011;29868;47.360;18.984;2022-08-26T02:01:20;13.57;;;9.48;;
43817;SDS011;29868;47.360;18.984;2022-08-26T02:03:50;12.82;;;9.70;;
43817;SDS011;29868;47.360;18.984;2022-08-26T02:06:20;16.08;;;10.30;;
43817;SDS011;29868;47.360;18.984;2022-08-26T02:08:47;12.90;;;9.25;;
43817;SDS011;29868;47.360;18.984;2022-08-26T02:11:15;13.63;;;9.70;;
43817;SDS011;29868;47.360;18.984;2022-08-26T02:13:47;11.85;;;9.18;;
43817;SDS011;29868;47.360;18.984;2022-08-26T02:18:43;13.48;;;9.32;;
43817;SDS011;29868;47.360;18.984;2022-08-26T02:21:09;13.70;;;8.90;;
43817;SDS011;29868;47.360;18.984;2022-08-26T02:23:36;17.58;;;9.68;;
43817;SDS011;29868;47.360;18.984;2022-08-26T02:26:06;14.27;;;9.32;;
43817;SDS011;29868;47.360;18.984;2022-08-26T02:28:36;13.18;;;9.68;;
43817;SDS011;29868;47.360;18.984;2022-08-26T02:31:06;13.60;;;9.30;;
43817;SDS011;29868;47.360;18.984;2022-08-26T02:33:32;13.13;;;9.10;;
43817;SDS011;29868;47.360;18.984;2022-08-26T02:35:57;17.65;;;10.90;;
43817;SDS011;29868;47.360;18.984;2022-08-26T02:38:23;16.15;;;10.07;;
43817;SDS011;29868;47.360;18.984;2022-08-26T02:40:48;14.18;;;10.13;;
43817;SDS011;29868;47.360;18.984;2022-08-26T02:43:14;12.48;;;9.18;;
43817;SDS011;29868;47.360;18.984;2022-08-26T02:45:39;15.13;;;9.75;;
43817;SDS011;29868;47.360;18.984;2022-08-26T02:48:15;16.30;;;10.75;;
43817;SDS011;29868;47.360;18.984;2022-08-26T02:50:42;15.20;;;9.85;;
43817;SDS011;29868;47.360;18.984;2022-08-26T02:53:08;13.98;;;9.75;;
43817;SDS011;29868;47.360;18.984;2022-08-26T02:55:34;13.68;;;10.10;;
43817;SDS011;29868;47.360;18.984;2022-08-26T02:58:00;15.05;;;10.43;;
43817;SDS011;29868;47.360;18.984;2022-08-26T03:00:27;13.55;;;10.18;;
43817;SDS011;29868;47.360;18.984;2022-08-26T03:02:53;15.30;;;10.55;;
43817;SDS011;29868;47.360;18.984;2022-08-26T03:05:19;14.75;;;9.77;;
43817;SDS011;29868;47.360;18.984;2022-08-26T03:07:46;11.02;;;9.18;;
43817;SDS011;29868;47.360;18.984;2022-08-26T03:10:12;12.25;;;9.43;;
43817;SDS011;29868;47.360;18.984;2022-08-26T03:12:37;13.88;;;10.40;;
43817;SDS011;29868;47.360;18.984;2022-08-26T03:15:04;14.43;;;9.85;;
43817;SDS011;29868;47.360;18.984;2022-08-26T03:17:30;13.80;;;9.88;;
43817;SDS011;29868;47.360;18.984;2022-08-26T03:19:56;16.25;;;9.85;;
43817;SDS011;29868;47.360;18.984;2022-08-26T03:22:22;17.00;;;11.00;;
43817;SDS011;29868;47.360;18.984;2022-08-26T03:24:47;16.95;;;11.35;;
43817;SDS011;29868;47.360;18.984;2022-08-26T03:27:13;18.80;;;12.73;;
43817;SDS011;29868;47.360;18.984;2022-08-26T03:29:38;16.63;;;11.70;;
43817;SDS011;29868;47.360;18.984;2022-08-26T03:32:22;14.38;;;10.75;;
43817;SDS011;29868;47.360;18.984;2022-08-26T03:34:47;16.55;;;11.77;;
43817;SDS011;29868;47.360;18.984;2022-08-26T03:37:13;17.00;;;11.95;;
43817;SDS011;29868;47.360;18.984;2022-08-26T03:39:39;19.60;;;12.25;;
43817;SDS011;29868;47.360;18.984;2022-08-26T03:42:05;17.40;;;11.57;;
43817;SDS011;29868;47.360;18.984;2022-08-26T03:44:30;16.30;;;11.65;;
43817;SDS011;29868;47.360;18.984;2022-08-26T03:46:56;18.17;;;11.80;;
43817;SDS011;29868;47.360;18.984;2022-08-26T03:49:21;17.25;;;11.68;;
43817;SDS011;29868;47.360;18.984;2022-08-26T03:51:47;17.77;;;11.25;;
43817;SDS011;29868;47.360;18.984;2022-08-26T03:54:12;17.42;;;11.85;;
43817;SDS011;29868;47.360;18.984;2022-08-26T03:56:38;19.17;;;11.60;;
43817;SDS011;29868;47.360;18.984;2022-08-26T03:59:03;17.10;;;11.23;;
43817;SDS011;29868;47.360;18.984;2022-08-26T04:01:29;15.80;;;10.95;;
43817;SDS011;29868;47.360;18.984;2022-08-26T04:03:55;18.08;;;11.30;;
43817;SDS011;29868;47.360;18.984;2022-08-26T04:06:28;15.93;;;11.57;;
43817;SDS011;29868;47.360;18.984;2022-08-26T04:08:56;17.08;;;11.23;;
43817;SDS011;29868;47.360;18.984;2022-08-26T04:11:25;17.67;;;11.48;;
43817;SDS011;29868;47.360;18.984;2022-08-26T04:13:55;15.68;;;11.07;;
43817;SDS011;29868;47.360;18.984;2022-08-26T04:16:25;18.60;;;12.05;;
43817;SDS011;29868;47.360;18.984;2022-08-26T04:18:51;15.52;;;10.52;;
43817;SDS011;29868;47.360;18.984;2022-08-26T04:21:17;19.90;;;11.70;;
43817;SDS011;29868;47.360;18.984;2022-08-26T04:23:43;14.77;;;11.32;;
43817;SDS011;29868;47.360;18.984;2022-08-26T04:26:08;17.95;;;11.77;;
43817;SDS011;29868;47.360;18.984;2022-08-26T04:28:34;14.45;;;10.82;;
43817;SDS011;29868;47.360;18.984;2022-08-26T04:31:00;15.68;;;10.88;;
43817;SDS011;29868;47.360;18.984;2022-08-26T04:33:26;14.55;;;10.65;;
43817;SDS011;29868;47.360;18.984;2022-08-26T04:35:58;16.60;;;11.07;;
43817;SDS011;29868;47.360;18.984;2022-08-26T04:38:27;17.08;;;11.40;;
43817;SDS011;29868;47.360;18.984;2022-08-26T04:40:53;15.63;;;10.90;;
43817;SDS011;29868;47.360;18.984;2022-08-26T04:43:18;14.13;;;11.07;;
43817;SDS011;29868;47.360;18.984;2022-08-26T04:45:44;15.02;;;10.32;;
43817;SDS011;29868;47.360;18.984;2022-08-26T04:48:09;14.75;;;10.65;;
43817;SDS011;29868;47.360;18.984;2022-08-26T04:50:35;18.48;;;10.43;;
43817;SDS011;29868;47.360;18.984;2022-08-26T04:53:01;13.30;;;9.48;;
43817;SDS011;29868;47.360;18.984;2022-08-26T04:55:28;13.63;;;9.88;;
43817;SDS011;29868;47.360;18.984;2022-08-26T04:57:55;11.55;;;8.93;;
43817;SDS011;29868;47.360;18.984;2022-08-26T05:00:20;12.93;;;8.40;;
43817;SDS011;29868;47.360;18.984;2022-08-26T05:02:46;12.90;;;8.02;;
43817;SDS011;29868;47.360;18.984;2022-08-26T05:05:12;13.00;;;8.00;;
43817;SDS011;29868;47.360;18.984;2022-08-26T05:07:38;11.90;;;6.95;;
43817;SDS011;29868;47.360;18.984;2022-08-26T05:10:04;12.82;;;7.72;;
43817;SDS011;29868;47.360;18.984;2022-08-26T05:12:30;11.43;;;6.80;;
43817;SDS011;29868;47.360;18.984;2022-08-26T05:14:56;13.07;;;7.30;;
43817;SDS011;29868;47.360;18.984;2022-08-26T05:17:21;11.18;;;6.85;;
43817;SDS011;29868;47.360;18.984;2022-08-26T05:19:46;9.80;;;6.78;;
43817;SDS011;29868;47.360;18.984;2022-08-26T05:22:14;15.23;;;6.55;;
43817;SDS011;29868;47.360;18.984;2022-08-26T05:24:39;11.40;;;6.68;;
43817;SDS011;29868;47.360;18.984;2022-08-26T05:27:05;9.32;;;6.53;;
43817;SDS011;29868;47.360;18.984;2022-08-26T05:29:31;9.95;;;6.22;;
43817;SDS011;29868;47.360;18.984;2022-08-26T05:31:57;11.20;;;6.25;;
43817;SDS011;29868;47.360;18.984;2022-08-26T05:34:22;13.25;;;6.55;;
43817;SDS011;29868;47.360;18.984;2022-08-26T05:36:48;10.52;;;6.18;;
43817;SDS011;29868;47.360;18.984;2022-08-26T05:39:13;12.38;;;5.95;;
43817;SDS011;29868;47.360;18.984;2022-08-26T05:41:40;11.20;;;5.93;;
43817;SDS011;29868;47.360;18.984;2022-08-26T05:44:08;13.40;;;5.60;;
43817;SDS011;29868;47.360;18.984;2022-08-26T05:46:37;11.70;;;6.20;;
43817;SDS011;29868;47.360;18.984;2022-08-26T05:49:04;13.05;;;5.70;;
43817;SDS011;29868;47.360;18.984;2022-08-26T05:51:31;10.70;;;6.32;;
43817;SDS011;29868;47.360;18.984;2022-08-26T05:53:56;13.50;;;5.35;;
43817;SDS011;29868;47.360;18.984;2022-08-26T05:56:22;14.35;;;5.20;;
43817;SDS011;29868;47.360;18.984;2022-08-26T05:58:50;12.38;;;4.95;;
43817;SDS011;29868;47.360;18.984;2022-08-26T06:01:17;9.20;;;4.80;;
43817;SDS011;29868;47.360;18.984;2022-08-26T06:03:45;10.52;;;4.95;;
43817;SDS011;29868;47.360;18.984;2022-08-26T06:06:14;9.07;;;4.75;;
43817;SDS011;29868;47.360;18.984;2022-08-26T06:08:41;11.27;;;4.93;;
43817;SDS011;29868;47.360;18.984;2022-08-26T06:11:09;8.45;;;4.90;;
43817;SDS011;29868;47.360;18.984;2022-08-26T06:13:37;9.52;;;5.18;;
43817;SDS011;29868;47.360;18.984;2022-08-26T06:16:04;12.23;;;5.38;;
43817;SDS011;29868;47.360;18.984;2022-08-26T06:18:33;16.17;;;4.90;;
43817;SDS011;29868;47.360;18.984;2022-08-26T06:23:45;10.80;;;4.40;;
43817;SDS011;29868;47.360;18.984;2022-08-26T06:26:30;9.80;;;4.20;;
43817;SDS011;29868;47.360;18.984;2022-08-26T06:28:56;12.85;;;4.50;;
43817;SDS011;29868;47.360;18.984;2022-08-26T06:31:22;13.40;;;4.55;;
43817;SDS011;29868;47.360;18.984;2022-08-26T06:33:48;11.25;;;4.25;;
43817;SDS011;29868;47.360;18.984;2022-08-26T06:36:15;15.77;;;4.97;;
43817;SDS011;29868;47.360;18.984;2022-08-26T06:38:46;10.77;;;3.95;;
43817;SDS011;29868;47.360;18.984;2022-08-26T06:41:13;11.65;;;4.05;;
43817;SDS011;29868;47.360;18.984;2022-08-26T06:43:39;12.32;;;4.30;;
43817;SDS011;29868;47.360;18.984;2022-08-26T06:46:05;13.27;;;4.60;;
43817;SDS011;29868;47.360;18.984;2022-08-26T06:48:33;9.82;;;3.95;;
43817;SDS011;29868;47.360;18.984;2022-08-26T06:53:31;10.77;;;4.50;;
43817;SDS011;29868;47.360;18.984;2022-08-26T06:55:57;12.48;;;4.93;;
43817;SDS011;29868;47.360;18.984;2022-08-26T06:58:22;9.77;;;4.32;;
43817;SDS011;29868;47.360;18.984;2022-08-26T07:00:48;11.25;;;4.25;;
43817;SDS011;29868;47.360;18.984;2022-08-26T07:03:13;10.43;;;4.45;;
43817;SDS011;29868;47.360;18.984;2022-08-26T07:05:38;11.05;;;4.50;;
43817;SDS011;29868;47.360;18.984;2022-08-26T07:08:04;9.23;;;4.40;;
43817;SDS011;29868;47.360;18.984;2022-08-26T07:10:30;10.70;;;4.68;;
43817;SDS011;29868;47.360;18.984;2022-08-26T07:12:55;10.68;;;3.92;;
43817;SDS011;29868;47.360;18.984;2022-08-26T07:15:21;12.23;;;4.22;;
43817;SDS011;29868;47.360;18.984;2022-08-26T07:17:46;12.73;;;3.92;;
43817;SDS011;29868;47.360;18.984;2022-08-26T07:20:12;10.20;;;4.25;;
43817;SDS011;29868;47.360;18.984;2022-08-26T07:22:37;12.30;;;3.58;;
43817;SDS011;29868;47.360;18.984;2022-08-26T07:25:03;10.68;;;4.35;;
43817;SDS011;29868;47.360;18.984;2022-08-26T07:27:32;8.75;;;3.90;;
43817;SDS011;29868;47.360;18.984;2022-08-26T07:29:58;7.38;;;3.50;;
43817;SDS011;29868;47.360;18.984;2022-08-26T07:32:24;7.65;;;3.50;;
43817;SDS011;29868;47.360;18.984;2022-08-26T07:34:49;12.65;;;3.88;;
43817;SDS011;29868;47.360;18.984;2022-08-26T07:37:15;8.57;;;3.38;;
43817;SDS011;29868;47.360;18.984;2022-08-26T07:39:41;9.15;;;3.88;;
43817;SDS011;29868;47.360;18.984;2022-08-26T07:42:08;12.57;;;4.40;;
43817;SDS011;29868;47.360;18.984;2022-08-26T07:44:37;8.95;;;3.55;;
43817;SDS011;29868;47.360;18.984;2022-08-26T07:47:03;11.90;;;4.57;;
43817;SDS011;29868;47.360;18.984;2022-08-26T07:49:29;8.77;;;4.05;;
43817;SDS011;29868;47.360;18.984;2022-08-26T07:51:55;11.23;;;4.25;;
43817;SDS011;29868;47.360;18.984;2022-08-26T07:54:20;10.00;;;4.00;;
43817;SDS011;29868;47.360;18.984;2022-08-26T07:56:47;12.10;;;4.25;;
43817;SDS011;29868;47.360;18.984;2022-08-26T07:59:12;12.15;;;4.20;;
43817;SDS011;29868;47.360;18.984;2022-08-26T08:01:38;7.70;;;3.60;;
43817;SDS011;29868;47.360;18.984;2022-08-26T08:04:04;9.30;;;3.72;;
43817;SDS011;29868;47.360;18.984;2022-08-26T08:06:30;10.70;;;4.13;;
43817;SDS011;29868;47.360;18.984;2022-08-26T08:08:56;8.02;;;3.65;;
43817;SDS011;29868;47.360;18.984;2022-08-26T08:11:23;7.90;;;3.90;;
43817;SDS011;29868;47.360;18.984;2022-08-26T08:13:51;10.32;;;3.40;;
43817;SDS011;29868;47.360;18.984;2022-08-26T08:16:16;10.50;;;3.53;;
43817;SDS011;29868;47.360;18.984;2022-08-26T08:18:42;11.90;;;3.70;;
43817;SDS011;29868;47.360;18.984;2022-08-26T08:21:07;8.30;;;3.88;;
43817;SDS011;29868;47.360;18.984;2022-08-26T08:23:33;9.40;;;3.70;;
43817;SDS011;29868;47.360;18.984;2022-08-26T08:26:00;7.45;;;3.60;;
43817;SDS011;29868;47.360;18.984;2022-08-26T08:28:29;7.50;;;3.42;;
43817;SDS011;29868;47.360;18.984;2022-08-26T08:30:55;8.27;;;3.83;;
43817;SDS011;29868;47.360;18.984;2022-08-26T08:33:21;7.78;;;3.60;;
43817;SDS011;29868;47.360;18.984;2022-08-26T08:35:47;6.95;;;3.78;;
43817;SDS011;29868;47.360;18.984;2022-08-26T08:38:13;8.52;;;4.05;;
43817;SDS011;29868;47.360;18.984;2022-08-26T08:40:39;11.10;;;3.95;;
43817;SDS011;29868;47.360;18.984;2022-08-26T08:45:38;10.05;;;3.47;;
43817;SDS011;29868;47.360;18.984;2022-08-26T08:50:46;10.13;;;3.93;;
43817;SDS011;29868;47.360;18.984;2022-08-26T08:56:11;10.40;;;3.60;;
43817;SDS011;29868;47.360;18.984;2022-08-26T09:01:27;8.48;;;3.47;;
43817;SDS011;29868;47.360;18.984;2022-08-26T09:06:44;6.45;;;3.78;;
43817;SDS011;29868;47.360;18.984;2022-08-26T09:09:19;8.98;;;3.97;;
43817;SDS011;29868;47.360;18.984;2022-08-26T09:11:47;8.15;;;3.90;;
43817;SDS011;29868;47.360;18.984;2022-08-26T09:14:13;8.48;;;3.50;;
43817;SDS011;29868;47.360;18.984;2022-08-26T09:19:40;8.50;;;3.60;;
43817;SDS011;29868;47.360;18.984;2022-08-26T09:22:11;10.55;;;3.83;;
43817;SDS011;29868;47.360;18.984;2022-08-26T09:24:53;9.25;;;3.63;;
43817;SDS011;29868;47.360;18.984;2022-08-26T09:27:34;10.88;;;3.97;;
43817;SDS011;29868;47.360;18.984;2022-08-26T09:30:08;9.00;;;3.72;;
43817;SDS011;29868;47.360;18.984;2022-08-26T09:32:36;8.80;;;3.30;;
43817;SDS011;29868;47.360;18.984;2022-08-26T09:35:03;11.30;;;4.30;;
43817;SDS011;29868;47.360;18.984;2022-08-26T09:37:42;8.38;;;3.88;;
43817;SDS011;29868;47.360;18.984;2022-08-26T09:45:49;11.50;;;4.13;;
43817;SDS011;29868;47.360;18.984;2022-08-26T09:48:25;9.50;;;3.70;;
43817;SDS011;29868;47.360;18.984;2022-08-26T09:53:22;6.00;;;3.20;;
43817;SDS011;29868;47.360;18.984;2022-08-26T09:56:14;7.38;;;3.88;;
43817;SDS011;29868;47.360;18.984;2022-08-26T09:58:43;9.90;;;3.50;;
43817;SDS011;29868;47.360;18.984;2022-08-26T10:04:03;11.18;;;3.85;;
43817;SDS011;29868;47.360;18.984;2022-08-26T10:06:43;8.63;;;4.20;;
43817;SDS011;29868;47.360;18.984;2022-08-26T10:09:21;10.90;;;3.72;;
43817;SDS011;29868;47.360;18.984;2022-08-26T10:17:00;9.80;;;3.63;;
43817;SDS011;29868;47.360;18.984;2022-08-26T10:19:48;9.40;;;4.47;;
43817;SDS011;29868;47.360;18.984;2022-08-26T10:22:26;10.80;;;3.70;;
43817;SDS011;29868;47.360;18.984;2022-08-26T10:25:14;10.77;;;3.70;;
43817;SDS011;29868;47.360;18.984;2022-08-26T10:27:46;8.68;;;3.65;;
43817;SDS011;29868;47.360;18.984;2022-08-26T10:30:13;11.07;;;4.00;;
43817;SDS011;29868;47.360;18.984;2022-08-26T10:32:45;11.07;;;3.70;;
43817;SDS011;29868;47.360;18.984;2022-08-26T10:35:15;6.82;;;3.75;;
43817;SDS011;29868;47.360;18.984;2022-08-26T10:37:50;9.38;;;3.90;;
43817;SDS011;29868;47.360;18.984;2022-08-26T10:40:23;10.23;;;3.83;;
43817;SDS011;29868;47.360;18.984;2022-08-26T10:42:54;10.13;;;3.80;;
43817;SDS011;29868;47.360;18.984;2022-08-26T10:45:25;9.88;;;3.70;;
43817;SDS011;29868;47.360;18.984;2022-08-26T10:50:25;9.48;;;3.50;;
43817;SDS011;29868;47.360;18.984;2022-08-26T11:00:59;14.30;;;3.67;;
43817;SDS011;29868;47.360;18.984;2022-08-26T11:04:08;11.73;;;3.58;;
43817;SDS011;29868;47.360;18.984;2022-08-26T11:06:39;11.02;;;3.60;;
43817;SDS011;29868;47.360;18.984;2022-08-26T11:09:06;11.65;;;3.47;;
43817;SDS011;29868;47.360;18.984;2022-08-26T11:24:41;12.23;;;3.28;;
43817;SDS011;29868;47.360;18.984;2022-08-26T11:34:58;9.25;;;3.17;;
43817;SDS011;29868;47.360;18.984;2022-08-26T11:37:56;11.23;;;3.53;;
43817;SDS011;29868;47.360;18.984;2022-08-26T11:42:56;8.40;;;3.25;;
43817;SDS011;29868;47.360;18.984;2022-08-26T11:45:34;13.20;;;4.25;;
43817;SDS011;29868;47.360;18.984;2022-08-26T11:53:32;10.32;;;3.15;;
43817;SDS011;29868;47.360;18.984;2022-08-26T11:56:03;10.50;;;3.58;;
43817;SDS011;29868;47.360;18.984;2022-08-26T11:58:32;10.18;;;3.42;;
43817;SDS011;29868;47.360;18.984;2022-08-26T12:01:03;8.10;;;3.10;;
43817;SDS011;29868;47.360;18.984;2022-08-26T12:03:48;10.90;;;3.47;;
43817;SDS011;29868;47.360;18.984;2022-08-26T12:06:19;9.10;;;3.20;;
43817;SDS011;29868;47.360;18.984;2022-08-26T12:11:23;10.95;;;4.22;;
43817;SDS011;29868;47.360;18.984;2022-08-26T12:13:58;14.45;;;3.58;;
43817;SDS011;29868;47.360;18.984;2022-08-26T12:16:29;8.70;;;3.40;;
43817;SDS011;29868;47.360;18.984;2022-08-26T12:25:05;12.70;;;3.95;;
43817;SDS011;29868;47.360;18.984;2022-08-26T12:27:34;8.07;;;3.38;;
43817;SDS011;29868;47.360;18.984;2022-08-26T12:30:07;10.75;;;3.85;;
43817;SDS011;29868;47.360;18.984;2022-08-26T12:32:36;11.90;;;3.92;;
43817;SDS011;29868;47.360;18.984;2022-08-26T12:35:06;10.55;;;3.35;;
43817;SDS011;29868;47.360;18.984;2022-08-26T12:37:36;7.05;;;2.90;;
43817;SDS011;29868;47.360;18.984;2022-08-26T12:40:29;12.73;;;3.35;;
43817;SDS011;29868;47.360;18.984;2022-08-26T12:43:04;11.57;;;3.40;;
43817;SDS011;29868;47.360;18.984;2022-08-26T12:45:37;11.18;;;3.33;;
43817;SDS011;29868;47.360;18.984;2022-08-26T12:48:49;9.05;;;3.28;;
43817;SDS011;29868;47.360;18.984;2022-08-26T12:50:57;13.43;;;3.92;;
43817;SDS011;29868;47.360;18.984;2022-08-26T12:53:25;13.32;;;3.15;;
43817;SDS011;29868;47.360;18.984;2022-08-26T12:56:02;8.75;;;3.33;;
43817;SDS011;29868;47.360;18.984;2022-08-26T12:58:41;12.35;;;3.47;;
43817;SDS011;29868;47.360;18.984;2022-08-26T13:08:32;11.13;;;3.33;;
43817;SDS011;29868;47.360;18.984;2022-08-26T13:11:17;11.55;;;3.30;;
43817;SDS011;29868;47.360;18.984;2022-08-26T13:13:58;7.03;;;2.95;;
43817;SDS011;29868;47.360;18.984;2022-08-26T13:16:26;6.20;;;3.20;;
43817;SDS011;29868;47.360;18.984;2022-08-26T13:18:53;11.25;;;3.55;;
43817;SDS011;29868;47.360;18.984;2022-08-26T13:21:22;8.93;;;3.20;;
43817;SDS011;29868;47.360;18.984;2022-08-26T13:23:52;8.90;;;3.15;;
43817;SDS011;29868;47.360;18.984;2022-08-26T13:26:18;10.45;;;3.78;;
43817;SDS011;29868;47.360;18.984;2022-08-26T13:28:45;7.47;;;3.40;;
43817;SDS011;29868;47.360;18.984;2022-08-26T13:31:11;9.57;;;3.40;;
43817;SDS011;29868;47.360;18.984;2022-08-26T13:33:38;11.02;;;3.67;;
43817;SDS011;29868;47.360;18.984;2022-08-26T13:36:04;10.43;;;3.78;;
43817;SDS011;29868;47.360;18.984;2022-08-26T13:38:30;10.80;;;3.67;;
43817;SDS011;29868;47.360;18.984;2022-08-26T13:40:56;7.47;;;3.08;;
43817;SDS011;29868;47.360;18.984;2022-08-26T13:43:26;7.90;;;3.13;;
43817;SDS011;29868;47.360;18.984;2022-08-26T13:45:52;11.00;;;3.70;;
43817;SDS011;29868;47.360;18.984;2022-08-26T13:48:18;10.25;;;3.55;;
43817;SDS011;29868;47.360;18.984;2022-08-26T13:50:44;8.70;;;3.00;;
43817;SDS011;29868;47.360;18.984;2022-08-26T13:53:11;6.35;;;3.22;;
43817;SDS011;29868;47.360;18.984;2022-08-26T13:55:38;11.63;;;3.53;;
43817;SDS011;29868;47.360;18.984;2022-08-26T13:58:04;11.82;;;3.53;;
43817;SDS011;29868;47.360;18.984;2022-08-26T14:00:30;11.18;;;3.53;;
43817;SDS011;29868;47.360;18.984;2022-08-26T14:02:57;14.70;;;4.28;;
43817;SDS011;29868;47.360;18.984;2022-08-26T14:05:22;9.85;;;3.55;;
43817;SDS011;29868;47.360;18.984;2022-08-26T14:07:48;10.35;;;3.47;;
43817;SDS011;29868;47.360;18.984;2022-08-26T14:10:13;13.27;;;3.70;;
43817;SDS011;29868;47.360;18.984;2022-08-26T14:12:39;8.55;;;3.25;;
43817;SDS011;29868;47.360;18.984;2022-08-26T14:15:05;10.88;;;3.38;;
43817;SDS011;29868;47.360;18.984;2022-08-26T14:17:31;8.35;;;3.33;;
43817;SDS011;29868;47.360;18.984;2022-08-26T14:19:56;9.85;;;3.22;;
43817;SDS011;29868;47.360;18.984;2022-08-26T14:22:22;9.82;;;3.38;;
43817;SDS011;29868;47.360;18.984;2022-08-26T14:24:47;10.48;;;3.50;;
43817;SDS011;29868;47.360;18.984;2022-08-26T14:27:14;11.82;;;3.25;;
43817;SDS011;29868;47.360;18.984;2022-08-26T14:29:40;9.70;;;3.00;;
43817;SDS011;29868;47.360;18.984;2022-08-26T14:32:11;10.10;;;3.10;;
43817;SDS011;29868;47.360;18.984;2022-08-26T14:34:41;10.93;;;3.53;;
43817;SDS011;29868;47.360;18.984;2022-08-26T14:37:06;9.45;;;3.50;;
43817;SDS011;29868;47.360;18.984;2022-08-26T14:39:32;10.60;;;3.40;;
43817;SDS011;29868;47.360;18.984;2022-08-26T14:41:58;22.73;;;6.72;;
43817;SDS011;29868;47.360;18.984;2022-08-26T14:44:25;9.98;;;3.30;;
43817;SDS011;29868;47.360;18.984;2022-08-26T14:46:53;22.17;;;7.90;;
43817;SDS011;29868;47.360;18.984;2022-08-26T14:49:19;9.88;;;3.83;;
43817;SDS011;29868;47.360;18.984;2022-08-26T14:51:45;16.45;;;4.72;;
43817;SDS011;29868;47.360;18.984;2022-08-26T14:54:11;11.15;;;3.60;;
43817;SDS011;29868;47.360;18.984;2022-08-26T14:56:48;10.88;;;3.63;;
43817;SDS011;29868;47.360;18.984;2022-08-26T14:59:22;15.82;;;5.50;;
43817;SDS011;29868;47.360;18.984;2022-08-26T15:01:55;12.05;;;4.43;;
43817;SDS011;29868;47.360;18.984;2022-08-26T15:04:21;12.40;;;3.70;;
43817;SDS011;29868;47.360;18.984;2022-08-26T15:06:48;9.13;;;3.50;;
43817;SDS011;29868;47.360;18.984;2022-08-26T15:09:14;9.32;;;3.45;;
43817;SDS011;29868;47.360;18.984;2022-08-26T15:11:40;8.27;;;3.80;;
43817;SDS011;29868;47.360;18.984;2022-08-26T15:14:06;6.60;;;3.08;;
43817;SDS011;29868;47.360;18.984;2022-08-26T15:16:32;10.50;;;3.55;;
43817;SDS011;29868;47.360;18.984;2022-08-26T15:18:58;10.45;;;3.40;;
43817;SDS011;29868;47.360;18.984;2022-08-26T15:21:24;8.63;;;3.17;;
43817;SDS011;29868;47.360;18.984;2022-08-26T15:23:50;9.70;;;3.20;;
43817;SDS011;29868;47.360;18.984;2022-08-26T15:26:17;12.80;;;3.40;;
43817;SDS011;29868;47.360;18.984;2022-08-26T15:28:44;13.63;;;3.17;;
43817;SDS011;29868;47.360;18.984;2022-08-26T15:31:09;13.73;;;4.15;;
43817;SDS011;29868;47.360;18.984;2022-08-26T15:33:35;9.80;;;3.20;;
43817;SDS011;29868;47.360;18.984;2022-08-26T15:36:03;11.68;;;4.35;;
43817;SDS011;29868;47.360;18.984;2022-08-26T15:38:30;10.68;;;3.30;;
43817;SDS011;29868;47.360;18.984;2022-08-26T15:40:57;7.28;;;3.25;;
43817;SDS011;29868;47.360;18.984;2022-08-26T15:43:24;8.73;;;3.42;;
43817;SDS011;29868;47.360;18.984;2022-08-26T15:45:50;8.98;;;3.17;;
43817;SDS011;29868;47.360;18.984;2022-08-26T15:48:20;9.05;;;4.15;;
43817;SDS011;29868;47.360;18.984;2022-08-26T15:50:53;9.52;;;3.92;;
43817;SDS011;29868;47.360;18.984;2022-08-26T15:53:20;12.93;;;3.83;;
43817;SDS011;29868;47.360;18.984;2022-08-26T15:55:47;12.10;;;3.67;;
43817;SDS011;29868;47.360;18.984;2022-08-26T15:58:13;9.18;;;3.83;;
43817;SDS011;29868;47.360;18.984;2022-08-26T16:00:40;11.68;;;3.67;;
43817;SDS011;29868;47.360;18.984;2022-08-26T16:03:05;10.65;;;3.60;;
43817;SDS011;29868;47.360;18.984;2022-08-26T16:05:31;8.98;;;3.67;;
43817;SDS011;29868;47.360;18.984;2022-08-26T16:08:00;10.30;;;3.58;;
43817;SDS011;29868;47.360;18.984;2022-08-26T16:10:27;12.27;;;4.15;;